Wetterdaten: Woche 09.09.02 - 15.09.02 (KW37)
Datum Zeit Temperatur Luftfeuchte Luftdruck Regenmenge Wind Richtung Taupunkt Windchill
09.09.2002 00:00 14.0 C 92 % 1011.8 hPa 0.0 l/m 0.0 km/h (0 Bft) N 12.6 C 14.0 C
09.09.2002 01:00 13.3 C 95 % 1012.0 hPa 0.0 l/m 1.1 km/h (0 Bft) O-SO 12.6 C 13.3 C
09.09.2002 02:00 13.2 C 96 % 1011.8 hPa 0.0 l/m 0.2 km/h (0 Bft) N 12.6 C 13.2 C
09.09.2002 03:00 12.6 C 98 % 1011.8 hPa 0.0 l/m 0.6 km/h (0 Bft) O-SO 12.3 C 12.6 C
09.09.2002 04:00 12.0 C 99 % 1010.8 hPa 0.0 l/m 0.0 km/h (0 Bft) N 11.9 C 12.0 C
09.09.2002 05:00 11.8 C 99 % 1010.8 hPa 0.0 l/m 0.0 km/h (0 Bft) N 11.5 C 11.8 C
09.09.2002 06:00 11.3 C 100 % 1010.8 hPa 0.0 l/m 0.2 km/h (0 Bft) O-SO 11.2 C 11.3 C
09.09.2002 07:00 11.6 C 100 % 1010.8 hPa 0.0 l/m 0.0 km/h (0 Bft) N 11.6 C 11.6 C
09.09.2002 08:00 13.2 C 98 % 1010.8 hPa 0.0 l/m 0.3 km/h (0 Bft) NW 12.9 C 13.2 C
09.09.2002 09:00 15.5 C 83 % 1010.9 hPa 0.0 l/m 0.2 km/h (0 Bft) W-NW 12.7 C 15.5 C
09.09.2002 10:00 17.8 C 74 % 1011.8 hPa 0.0 l/m 0.0 km/h (0 Bft) W-SW 13.1 C 17.8 C
09.09.2002 11:00 18.7 C 68 % 1012.8 hPa 0.0 l/m 9.5 km/h (2 Bft) W-NW 12.7 C 18.7 C
09.09.2002 12:00 19.3 C 68 % 1012.8 hPa 0.0 l/m 3.6 km/h (1 Bft) W-NW 13.2 C 19.3 C
09.09.2002 13:00 20.7 C 64 % 1012.5 hPa 0.0 l/m 2.4 km/h (1 Bft) O-SO 13.6 C 20.7 C
09.09.2002 14:00 21.7 C 63 % 1012.8 hPa 0.0 l/m 1.7 km/h (1 Bft) O-SO 14.2 C 21.7 C
09.09.2002 15:00 22.7 C 60 % 1012.8 hPa 0.0 l/m 1.0 km/h (0 Bft) W-NW 14.4 C 22.7 C
09.09.2002 16:00 24.0 C 55 % 1012.8 hPa 0.0 l/m 0.2 km/h (0 Bft) W 14.5 C 24.0 C
09.09.2002 17:00 22.7 C 58 % 1012.8 hPa 0.0 l/m 0.3 km/h (0 Bft) W 14.1 C 22.7 C
09.09.2002 18:00 20.1 C 64 % 1013.6 hPa 0.0 l/m 5.3 km/h (1 Bft) NW 13.1 C 20.1 C
09.09.2002 19:00 17.6 C 77 % 1013.5 hPa 0.0 l/m 0.2 km/h (0 Bft) O-SO 13.5 C 17.6 C
09.09.2002 20:00 16.4 C 85 % 1014.2 hPa 0.0 l/m 7.1 km/h (2 Bft) SO 14.0 C 16.4 C
09.09.2002 21:00 16.0 C 91 % 1015.4 hPa 0.9 l/m 0.9 km/h (0 Bft) O-SO 14.5 C 16.0 C
09.09.2002 22:00 15.5 C 97 % 1015.9 hPa 0.9 l/m 1.7 km/h (1 Bft) O-SO 15.1 C 15.5 C
09.09.2002 23:00 15.1 C 99 % 1017.0 hPa 4.2 l/m 2.0 km/h (1 Bft) SO 15.0 C 15.1 C
10.09.2002 00:00 14.9 C 100 % 1017.0 hPa 1.5 l/m 2.0 km/h (1 Bft) SO 14.9 C 14.9 C
10.09.2002 01:00 15.0 C 100 % 1017.0 hPa 1.5 l/m 0.1 km/h (0 Bft) SO 15.0 C 15.0 C
10.09.2002 02:00 14.7 C 100 % 1017.0 hPa 0.0 l/m 0.8 km/h (0 Bft) SO 14.7 C 14.7 C
10.09.2002 03:00 14.4 C 100 % 1017.0 hPa 0.3 l/m 0.1 km/h (0 Bft) N 14.4 C 14.4 C
10.09.2002 04:00 14.4 C 100 % 1018.0 hPa 0.3 l/m 0.0 km/h (0 Bft) N 14.4 C 14.4 C
10.09.2002 05:00 14.0 C 100 % 1018.0 hPa 0.0 l/m 1.3 km/h (1 Bft) S-SO 14.0 C 14.0 C
10.09.2002 06:00 13.6 C 100 % 1018.0 hPa 0.9 l/m 4.7 km/h (1 Bft) W-NW 13.6 C 13.6 C
10.09.2002 07:00 13.6 C 100 % 1018.5 hPa 0.0 l/m 1.7 km/h (1 Bft) W 13.6 C 13.6 C
10.09.2002 08:00 13.9 C 98 % 1019.0 hPa 0.0 l/m 0.5 km/h (0 Bft) O-SO 13.7 C 13.9 C
10.09.2002 09:00 14.9 C 93 % 1019.6 hPa 0.0 l/m 0.4 km/h (0 Bft) W 13.7 C 14.9 C
10.09.2002 10:00 15.5 C 87 % 1020.1 hPa 0.0 l/m 2.9 km/h (1 Bft) W 13.3 C 15.5 C
10.09.2002 11:00 16.5 C 82 % 1019.5 hPa 0.0 l/m 0.3 km/h (0 Bft) W 13.3 C 16.5 C
10.09.2002 12:00 17.2 C 75 % 1020.0 hPa 0.0 l/m 2.1 km/h (1 Bft) W-NW 12.6 C 17.2 C
10.09.2002 13:00 16.9 C 71 % 1020.1 hPa 0.0 l/m 11.1 km/h (2 Bft) W-NW 11.5 C 16.9 C
10.09.2002 14:00 16.0 C 80 % 1020.1 hPa 0.3 l/m 10.7 km/h (2 Bft) NW 12.6 C 16.0 C
10.09.2002 15:00 17.1 C 74 % 1020.1 hPa 0.0 l/m 2.3 km/h (1 Bft) W 12.4 C 17.1 C
10.09.2002 16:00 17.5 C 71 % 1020.1 hPa 0.0 l/m 3.7 km/h (1 Bft) SO 12.2 C 17.5 C
10.09.2002 17:00 13.8 C 89 % 1020.8 hPa 3.0 l/m 7.0 km/h (2 Bft) O-SO 12.0 C 13.8 C
10.09.2002 18:00 13.7 C 97 % 1021.1 hPa 0.0 l/m 2.2 km/h (1 Bft) O-SO 13.2 C 13.7 C
10.09.2002 19:00 13.7 C 98 % 1021.5 hPa 0.0 l/m 2.0 km/h (1 Bft) O-SO 13.4 C 13.7 C
10.09.2002 20:00 13.3 C 99 % 1022.2 hPa 0.0 l/m 0.5 km/h (0 Bft) O-SO 13.1 C 13.3 C
10.09.2002 21:00 13.1 C 100 % 1022.1 hPa 0.0 l/m 0.2 km/h (0 Bft) N 13.0 C 13.1 C
10.09.2002 22:00 13.0 C 100 % 1022.9 hPa 0.0 l/m 0.0 km/h (0 Bft) O-SO 13.0 C 13.0 C
10.09.2002 23:00 12.3 C 100 % 1022.7 hPa 0.0 l/m 1.0 km/h (0 Bft) O-SO 12.3 C 12.3 C
11.09.2002 00:00 11.9 C 100 % 1022.1 hPa 0.0 l/m 1.0 km/h (0 Bft) O-SO 11.9 C 11.9 C
11.09.2002 01:00 12.1 C 100 % 1022.1 hPa 0.0 l/m 0.1 km/h (0 Bft) N 12.1 C 12.1 C
11.09.2002 02:00 12.0 C 100 % 1022.1 hPa 0.0 l/m 0.1 km/h (0 Bft) N 12.0 C 12.0 C
11.09.2002 03:00 11.3 C 100 % 1022.1 hPa 0.0 l/m 0.0 km/h (0 Bft) N 11.3 C 11.3 C
11.09.2002 04:00 11.4 C 100 % 1022.1 hPa 0.0 l/m 0.0 km/h (0 Bft) N 11.4 C 11.4 C
11.09.2002 05:00 11.4 C 100 % 1022.1 hPa 0.0 l/m 0.0 km/h (0 Bft) N 11.4 C 11.4 C
11.09.2002 06:00 11.1 C 100 % 1022.1 hPa 0.0 l/m 0.2 km/h (0 Bft) N 11.1 C 11.1 C
11.09.2002 07:00 11.1 C 100 % 1022.1 hPa 0.0 l/m 0.0 km/h (0 Bft) N 11.1 C 11.1 C
11.09.2002 08:00 11.6 C 98 % 1022.1 hPa 0.0 l/m 0.7 km/h (0 Bft) W-NW 11.3 C 11.6 C
11.09.2002 09:00 12.2 C 95 % 1022.1 hPa 0.0 l/m 0.0 km/h (0 Bft) N 11.4 C 12.2 C
11.09.2002 10:00 13.1 C 91 % 1022.1 hPa 0.0 l/m 0.0 km/h (0 Bft) N 11.6 C 13.1 C
11.09.2002 11:00 14.4 C 86 % 1021.9 hPa 0.0 l/m 0.2 km/h (0 Bft) N 12.2 C 14.4 C
11.09.2002 12:00 15.4 C 81 % 1021.1 hPa 0.0 l/m 0.2 km/h (0 Bft) O-SO 12.1 C 15.4 C
11.09.2002 13:00 15.0 C 83 % 1021.1 hPa 0.3 l/m 3.0 km/h (1 Bft) O-SO 12.2 C 15.0 C
11.09.2002 14:00 15.4 C 85 % 1021.1 hPa 0.0 l/m 1.0 km/h (0 Bft) N-NO 12.9 C 15.4 C
11.09.2002 15:00 17.0 C 70 % 1020.2 hPa 0.0 l/m 0.9 km/h (0 Bft) O-NO 11.6 C 17.0 C
11.09.2002 16:00 16.8 C 69 % 1020.1 hPa 0.0 l/m 2.7 km/h (1 Bft) NO 11.1 C 16.8 C
11.09.2002 17:00 16.5 C 71 % 1020.1 hPa 0.0 l/m 0.4 km/h (0 Bft) N 11.2 C 16.5 C
11.09.2002 18:00 16.7 C 71 % 1020.1 hPa 0.0 l/m 0.1 km/h (0 Bft) N 11.5 C 16.7 C
11.09.2002 19:00 15.7 C 74 % 1020.1 hPa 0.0 l/m 0.0 km/h (0 Bft) N 11.2 C 15.7 C
11.09.2002 20:00 14.7 C 77 % 1021.1 hPa 0.0 l/m 0.0 km/h (0 Bft) N 10.7 C 14.7 C
11.09.2002 21:00 14.2 C 79 % 1021.1 hPa 0.0 l/m 0.3 km/h (0 Bft) O-SO 10.6 C 14.2 C
11.09.2002 22:00 13.2 C 87 % 1021.1 hPa 0.0 l/m 0.6 km/h (0 Bft) O-SO 11.1 C 13.2 C
11.09.2002 23:00 13.5 C 82 % 1021.1 hPa 0.0 l/m 0.1 km/h (0 Bft) N 10.4 C 13.5 C
12.09.2002 00:00 13.3 C 82 % 1020.5 hPa 0.0 l/m 0.1 km/h (0 Bft) N 10.3 C 13.3 C
12.09.2002 01:00 13.7 C 80 % 1020.1 hPa 0.0 l/m 2.2 km/h (1 Bft) NO 10.2 C 13.7 C
12.09.2002 02:00 13.5 C 80 % 1020.1 hPa 0.0 l/m 2.7 km/h (1 Bft) O-NO 10.1 C 13.5 C
12.09.2002 03:00 13.2 C 81 % 1019.6 hPa 0.0 l/m 0.1 km/h (0 Bft) N 10.1 C 13.2 C
12.09.2002 04:00 13.4 C 80 % 1019.0 hPa 0.0 l/m 0.3 km/h (0 Bft) O-SO 10.1 C 13.4 C
12.09.2002 05:00 13.5 C 80 % 1019.0 hPa 0.0 l/m 3.9 km/h (1 Bft) O-NO 10.0 C 13.5 C
12.09.2002 06:00 13.3 C 80 % 1019.0 hPa 0.0 l/m 0.9 km/h (0 Bft) NO 9.9 C 13.3 C
12.09.2002 07:00 13.5 C 79 % 1019.0 hPa 0.0 l/m 0.3 km/h (0 Bft) NO 10.0 C 13.5 C
12.09.2002 08:00 14.0 C 81 % 1019.0 hPa 0.0 l/m 5.9 km/h (2 Bft) O-SO 10.7 C 14.0 C
12.09.2002 09:00 14.5 C 80 % 1019.0 hPa 0.0 l/m 8.0 km/h (2 Bft) O-SO 11.2 C 14.5 C
12.09.2002 10:00 15.8 C 76 % 1019.0 hPa 0.0 l/m 4.3 km/h (1 Bft) NO 11.6 C 15.8 C
12.09.2002 11:00 16.9 C 70 % 1019.0 hPa 0.0 l/m 3.0 km/h (1 Bft) O-NO 11.4 C 16.9 C
12.09.2002 12:00 17.7 C 66 % 1018.7 hPa 0.0 l/m 3.6 km/h (1 Bft) O-NO 11.3 C 17.7 C
12.09.2002 13:00 18.9 C 62 % 1018.0 hPa 0.0 l/m 3.8 km/h (1 Bft) O-SO 11.5 C 18.9 C
12.09.2002 14:00 20.6 C 57 % 1017.4 hPa 0.0 l/m 6.1 km/h (2 Bft) O 11.8 C 20.6 C
12.09.2002 15:00 20.5 C 55 % 1017.0 hPa 0.0 l/m 6.6 km/h (2 Bft) O-NO 11.3 C 20.5 C
12.09.2002 16:00 20.9 C 50 % 1017.0 hPa 0.0 l/m 7.8 km/h (2 Bft) O-NO 10.2 C 20.9 C
12.09.2002 17:00 20.3 C 54 % 1017.0 hPa 0.0 l/m 4.5 km/h (1 Bft) O 10.7 C 20.3 C
12.09.2002 18:00 19.7 C 52 % 1017.0 hPa 0.0 l/m 5.6 km/h (1 Bft) NO 9.6 C 19.7 C
12.09.2002 19:00 18.2 C 54 % 1017.7 hPa 0.0 l/m 2.7 km/h (1 Bft) O-NO 8.6 C 18.2 C
12.09.2002 20:00 16.3 C 60 % 1018.0 hPa 0.0 l/m 0.6 km/h (0 Bft) N-NO 8.6 C 16.3 C
12.09.2002 21:00 15.4 C 62 % 1018.6 hPa 0.0 l/m 0.6 km/h (0 Bft) N 8.2 C 15.4 C
12.09.2002 22:00 14.9 C 64 % 1019.0 hPa 0.0 l/m 1.8 km/h (1 Bft) N-NO 8.1 C 14.9 C
12.09.2002 23:00 14.0 C 69 % 1019.0 hPa 0.0 l/m 0.7 km/h (0 Bft) O-NO 8.4 C 14.0 C
13.09.2002 00:00 13.3 C 73 % 1019.0 hPa 0.0 l/m 1.1 km/h (0 Bft) N-NO 8.6 C 13.3 C
13.09.2002 01:00 13.4 C 66 % 1019.0 hPa 0.0 l/m 2.7 km/h (1 Bft) NO 7.2 C 13.4 C
13.09.2002 02:00 12.8 C 67 % 1019.0 hPa 0.0 l/m 2.5 km/h (1 Bft) O-NO 6.7 C 12.8 C
13.09.2002 03:00 11.7 C 71 % 1019.0 hPa 0.0 l/m 1.4 km/h (1 Bft) O 6.6 C 11.7 C
13.09.2002 04:00 10.9 C 73 % 1018.5 hPa 0.0 l/m 7.0 km/h (2 Bft) O-SO 6.3 C 10.9 C
13.09.2002 05:00 8.5 C 85 % 1019.0 hPa 0.0 l/m 1.7 km/h (1 Bft) SO 6.1 C 8.3 C
13.09.2002 06:00 7.3 C 92 % 1018.9 hPa 0.0 l/m 0.0 km/h (0 Bft) N 6.0 C 7.3 C
13.09.2002 07:00 7.0 C 93 % 1019.0 hPa 0.0 l/m 0.9 km/h (0 Bft) SO 6.0 C 6.9 C
13.09.2002 08:00 9.0 C 87 % 1019.0 hPa 0.0 l/m 0.0 km/h (0 Bft) N 6.9 C 9.0 C
13.09.2002 09:00 12.2 C 66 % 1019.3 hPa 0.0 l/m 9.6 km/h (2 Bft) SO 6.0 C 12.2 C
13.09.2002 10:00 14.0 C 60 % 1020.1 hPa 0.0 l/m 14.0 km/h (3 Bft) O-SO 6.3 C 14.0 C
13.09.2002 11:00 15.6 C 55 % 1019.8 hPa 0.0 l/m 15.0 km/h (3 Bft) O-SO 6.5 C 15.6 C
13.09.2002 12:00 17.4 C 50 % 1019.0 hPa 0.0 l/m 9.4 km/h (2 Bft) O 6.8 C 17.4 C
13.09.2002 13:00 18.7 C 45 % 1019.0 hPa 0.0 l/m 10.0 km/h (2 Bft) O-SO 6.4 C 18.7 C
13.09.2002 14:00 19.8 C 42 % 1019.0 hPa 0.0 l/m 9.6 km/h (2 Bft) O 6.5 C 19.8 C
13.09.2002 15:00 20.0 C 40 % 1018.3 hPa 0.0 l/m 9.3 km/h (2 Bft) O-NO 6.0 C 20.0 C
13.09.2002 16:00 20.2 C 41 % 1018.0 hPa 0.0 l/m 14.2 km/h (3 Bft) O-SO 6.4 C 20.2 C
13.09.2002 17:00 19.3 C 41 % 1018.0 hPa 0.0 l/m 25.0 km/h (4 Bft) O-SO 5.9 C 19.3 C
13.09.2002 18:00 18.1 C 44 % 1018.5 hPa 0.0 l/m 10.8 km/h (2 Bft) O-SO 5.5 C 18.1 C
13.09.2002 19:00 15.8 C 49 % 1019.0 hPa 0.0 l/m 0.9 km/h (0 Bft) O 5.2 C 15.8 C
13.09.2002 20:00 13.8 C 59 % 1019.0 hPa 0.0 l/m 3.0 km/h (1 Bft) O-SO 5.8 C 13.8 C
13.09.2002 21:00 12.4 C 66 % 1020.1 hPa 0.0 l/m 3.1 km/h (1 Bft) O-SO 6.3 C 12.4 C
13.09.2002 22:00 11.4 C 72 % 1020.1 hPa 0.0 l/m 0.2 km/h (0 Bft) N 6.4 C 11.4 C
13.09.2002 23:00 9.5 C 83 % 1020.1 hPa 0.0 l/m 0.0 km/h (0 Bft) N 6.7 C 9.5 C
14.09.2002 00:00 8.5 C 89 % 1020.1 hPa 0.0 l/m 2.1 km/h (1 Bft) O 6.7 C 8.2 C
14.09.2002 01:00 7.9 C 89 % 1020.1 hPa 0.0 l/m 1.7 km/h (1 Bft) O 6.2 C 7.7 C
14.09.2002 02:00 7.3 C 94 % 1020.1 hPa 0.0 l/m 4.8 km/h (1 Bft) O-SO 6.4 C 6.5 C
14.09.2002 03:00 6.6 C 96 % 1020.1 hPa 0.0 l/m 0.3 km/h (0 Bft) O-SO 6.1 C 6.6 C
14.09.2002 04:00 6.1 C 98 % 1019.7 hPa 0.0 l/m 3.3 km/h (1 Bft) O-SO 5.8 C 5.7 C
14.09.2002 05:00 6.2 C 98 % 1020.1 hPa 0.0 l/m 1.6 km/h (1 Bft) O-SO 5.9 C 5.9 C
14.09.2002 06:00 5.4 C 98 % 1020.1 hPa 0.0 l/m 0.0 km/h (0 Bft) N 5.0 C 5.4 C
14.09.2002 07:00 4.8 C 100 % 1020.1 hPa 0.0 l/m 1.0 km/h (0 Bft) O-SO 4.8 C 4.8 C
14.09.2002 08:00 6.4 C 99 % 1020.1 hPa 0.0 l/m 0.0 km/h (0 Bft) N 6.2 C 6.4 C
14.09.2002 09:00 9.1 C 87 % 1020.2 hPa 0.0 l/m 0.1 km/h (0 Bft) N 7.0 C 9.1 C
14.09.2002 10:00 12.2 C 71 % 1020.8 hPa 0.0 l/m 0.1 km/h (0 Bft) N 7.1 C 12.2 C
14.09.2002 11:00 15.7 C 56 % 1020.1 hPa 0.0 l/m 5.6 km/h (1 Bft) O 7.0 C 15.7 C
14.09.2002 12:00 17.6 C 47 % 1019.8 hPa 0.0 l/m 10.8 km/h (2 Bft) O 6.2 C 17.6 C
14.09.2002 13:00 19.0 C 41 % 1019.0 hPa 0.0 l/m 8.9 km/h (2 Bft) O-NO 5.5 C 19.0 C
14.09.2002 14:00 20.3 C 39 % 1019.0 hPa 0.0 l/m 5.9 km/h (2 Bft) O-SO 6.0 C 20.3 C
14.09.2002 15:00 21.0 C 40 % 1018.0 hPa 0.0 l/m 9.7 km/h (2 Bft) O-SO 6.9 C 21.0 C
14.09.2002 16:00 21.2 C 43 % 1017.1 hPa 0.0 l/m 12.5 km/h (3 Bft) O-SO 8.0 C 21.2 C
14.09.2002 17:00 20.6 C 43 % 1017.0 hPa 0.0 l/m 10.5 km/h (2 Bft) O-SO 7.7 C 20.6 C
14.09.2002 18:00 19.3 C 50 % 1017.0 hPa 0.0 l/m 7.2 km/h (2 Bft) O-SO 8.4 C 19.3 C
14.09.2002 19:00 16.7 C 58 % 1017.1 hPa 0.0 l/m 0.9 km/h (0 Bft) O-SO 8.4 C 16.7 C
14.09.2002 20:00 13.5 C 74 % 1018.0 hPa 0.0 l/m 8.1 km/h (2 Bft) O-SO 8.9 C 13.5 C
14.09.2002 21:00 11.5 C 84 % 1018.0 hPa 0.0 l/m 4.3 km/h (1 Bft) O-SO 8.8 C 11.5 C
14.09.2002 22:00 10.3 C 90 % 1018.0 hPa 0.0 l/m 2.6 km/h (1 Bft) O-SO 8.8 C 10.3 C
14.09.2002 23:00 9.5 C 94 % 1018.3 hPa 0.0 l/m 1.7 km/h (1 Bft) O-SO 8.5 C 9.4 C
15.09.2002 00:00 8.6 C 97 % 1018.0 hPa 0.0 l/m 1.1 km/h (1 Bft) O-SO 8.1 C 8.6 C
15.09.2002 01:00 8.0 C 99 % 1018.0 hPa 0.0 l/m 3.5 km/h (1 Bft) O-SO 7.8 C 7.5 C
15.09.2002 02:00 8.0 C 100 % 1018.0 hPa 0.0 l/m 2.3 km/h (1 Bft) O-SO 8.0 C 7.7 C
15.09.2002 03:00 8.6 C 100 % 1018.0 hPa 0.0 l/m 2.9 km/h (1 Bft) O-SO 8.6 C 8.3 C
15.09.2002 04:00 9.0 C 100 % 1018.0 hPa 0.0 l/m 0.0 km/h (0 Bft) N 9.0 C 9.0 C
15.09.2002 05:00 9.3 C 100 % 1017.6 hPa 0.0 l/m 0.0 km/h (0 Bft) N 9.3 C 9.3 C
15.09.2002 06:00 9.2 C 99 % 1017.4 hPa 0.0 l/m 0.0 km/h (0 Bft) N 9.1 C 9.2 C
15.09.2002 07:00 9.4 C 99 % 1018.0 hPa 0.0 l/m 0.0 km/h (0 Bft) N 9.3 C 9.4 C
15.09.2002 08:00 10.4 C 93 % 1018.0 hPa 0.0 l/m 0.0 km/h (0 Bft) N 9.4 C 10.4 C
15.09.2002 09:00 11.7 C 87 % 1018.0 hPa 0.0 l/m 0.0 km/h (0 Bft) N 9.5 C 11.7 C
15.09.2002 10:00 13.6 C 79 % 1018.0 hPa 0.0 l/m 0.0 km/h (0 Bft) N 10.0 C 13.6 C
15.09.2002 11:00 15.9 C 69 % 1018.0 hPa 0.0 l/m 0.0 km/h (0 Bft) N 10.1 C 15.9 C
15.09.2002 12:00 16.5 C 64 % 1018.0 hPa 0.0 l/m 0.6 km/h (0 Bft) NO 9.7 C 16.5 C
15.09.2002 13:00 17.7 C 60 % 1018.0 hPa 0.0 l/m 7.5 km/h (2 Bft) O-SO 9.9 C 17.7 C
15.09.2002 14:00 18.3 C 58 % 1018.0 hPa 0.0 l/m 18.2 km/h (3 Bft) O-SO 9.9 C 18.3 C
15.09.2002 15:00 17.8 C 58 % 1017.6 hPa 0.0 l/m 14.6 km/h (3 Bft) O-SO 9.3 C 17.8 C
15.09.2002 16:00 18.8 C 54 % 1017.0 hPa 0.0 l/m 13.6 km/h (3 Bft) O-SO 9.2 C 18.8 C
15.09.2002 17:00 17.6 C 58 % 1017.0 hPa 0.0 l/m 6.3 km/h (2 Bft) O-SO 9.3 C 17.6 C
15.09.2002 18:00 16.7 C 61 % 1017.0 hPa 0.0 l/m 5.7 km/h (1 Bft) O-SO 9.1 C 16.7 C
15.09.2002 19:00 15.2 C 65 % 1017.5 hPa 0.0 l/m 0.1 km/h (0 Bft) O-SO 8.7 C 15.2 C
15.09.2002 20:00 13.8 C 73 % 1018.0 hPa 0.0 l/m 0.6 km/h (0 Bft) N 9.0 C 13.8 C
15.09.2002 21:00 11.8 C 83 % 1018.0 hPa 0.0 l/m 0.0 km/h (0 Bft) N 8.9 C 11.8 C
15.09.2002 22:00 10.1 C 91 % 1018.5 hPa 0.0 l/m 0.0 km/h (0 Bft) N 8.7 C 10.1 C
15.09.2002 23:00 9.3 C 94 % 1018.0 hPa 0.0 l/m 0.0 km/h (0 Bft) N 8.4 C 9.3 C
Min-Datum _ 14.09.02 13.09.02 09.09.02 - 09.09.02 - 14.09.02 14.09.02
_ Min-Zeit 06:50 14:56 04:00 - 00:01 - 12:50 06:50
Minimum _ 4.7 C 38 % 1010.8 hPa - 0.0 km/h (0 Bft) - 4.3 C 4.7 C
Max-Datum _ 09.09.02 09.09.02 10.09.02 09.09.02 13.09.02 - 09.09.02 09.09.02
_ Max-Zeit 16:55 04:40 22:29 22:00 17:47 - 15:46 16:55
Maximum _ 24.8 C 100 % 1023.2 hPa 4.2 l/m 31.2 km/h
O-SO (5 Bft)
- 15.8 C 24.8 C
Durchschnitt _ 14.3 C 78 % 1018.3 hPa #14.1 l/m 3.1 km/h (1 Bft) O-SO 10.1 C 14.3 C

Durchschnitt Minimum Temp.13.6 C
Durchschnitt Maximum Temp.15.0 C
© Kaiko 2002